Iolaos — D5JT5 — position and weather

sailwx.info

Track history (hours):
 
Tides and Currents Weather Stations Pressure Air Temp Water Temp Dewpoint Dewpoint Depression Visibility Wind Speed Wind Dir Waves Ship Positions

Iolaos

Last reported at 2017-Nov-30 20:50 UTC. Time now 2017-Dec-18 05:18 UTC.
Position N 49°53' W 003°27'.
Warning: this ship's position is 17 days out of date.

Length 200 m; draft 7.2 m.

Type: Cargo ship. MMSI: 636017197.

Date/timePositionNaut miles runAvg speedWind from/ knotsBaromVisibWave heightAir tempDewpointWater temp
2017-Nov-30 20:50N 49°53' W 003°27'515.5
2017-Nov-30 20:30N 49°54' W 003°20'815.3
2017-Nov-30 20:00N 49°56' W 003°08'714.8
2017-Nov-30 19:30N 49°58' W 002°57'714.3
2017-Nov-30 19:00N 49°60' W 002°46'713.6
2017-Nov-30 18:31N 50°01' W 002°36'1912.2
2017-Nov-30 16:58N 50°05' W 002°07'511.4
2017-Nov-30 16:30N 50°07' W 001°60'611.4
2017-Nov-30 16:00N 50°08' W 001°51'611.8
2017-Nov-30 15:30N 50°10' W 001°42'612.2
2017-Nov-30 15:00N 50°11' W 001°33'612.9
2017-Nov-30 14:30N 50°12' W 001°23'713.8
2017-Nov-30 14:00N 50°14' W 001°13'4015.1
2017-Nov-30 11:21N 50°27' W 000°13'514.9
2017-Nov-30 11:00N 50°28' W 000°05'814.8
2017-Nov-30 10:30N 50°30' E 000°06'714.6
2017-Nov-30 10:00N 50°32' E 000°17'714.6
2017-Nov-30 09:30N 50°35' E 000°28'714.1
2017-Nov-30 09:01N 50°38' E 000°38'714.2
2017-Nov-30 08:31N 50°42' E 000°47'713.8
2017-Nov-30 08:00N 50°46' E 000°56'713.6
2017-Nov-30 07:30N 50°50' E 001°05'1213.7
2017-Nov-30 06:37N 50°57' E 001°21'314.8
2017-Nov-30 06:23N 50°59' E 001°24'615.6
2017-Nov-30 06:00N 51°03' E 001°31'816.1
2017-Nov-30 05:31N 51°09' E 001°40'816.2
2017-Nov-30 05:01N 51°15' E 001°49'816.5
2017-Nov-30 04:30N 51°23' E 001°54'815.8
2017-Nov-30 04:00N 51°29' E 002°01'815.6
2017-Nov-30 03:31N 51°35' E 002°10'140 8.8
2017-Nov-29 11:42N 53°40' E 000°26'1 5.6
2017-Nov-29 11:29N 53°41' E 000°26'3 0.3
2017-Nov-28 23:39N 53°43' E 000°29'2 5.9
2017-Nov-28 23:14N 53°42' E 000°26'1 6.1
2017-Nov-28 23:00N 53°41' E 000°25'3 5.8
2017-Nov-28 22:30N 53°38' E 000°22'4 7.7
2017-Nov-28 22:00N 53°35' E 000°18'4 7.0
2017-Nov-28 21:30N 53°33' E 000°14'4 8.1
2017-Nov-28 21:00N 53°33' E 000°07'510.6
2017-Nov-28 20:30N 53°35' W 000°01'611.1
2017-Nov-28 20:00N 53°38' W 000°09'2 3.4
2017-Nov-28 19:30N 53°38' W 000°12'0 0.0
2017-Nov-28 19:00N 53°38' W 000°12'0 0.0
2017-Nov-28 18:30N 53°38' W 000°12'0 0.0
2017-Nov-28 17:57N 53°38' W 000°12'0 0.0
2017-Nov-28 17:27N 53°38' W 000°12'0 0.0
2017-Nov-28 16:51N 53°38' W 000°12'0 0.0
2017-Nov-28 16:30N 53°38' W 000°12'0 0.0
2017-Nov-28 16:00N 53°38' W 000°12'0 0.0
2017-Nov-28 15:00N 53°38' W 000°12'0 0.0
2017-Nov-28 14:24N 53°38' W 000°12'0 0.0
2017-Nov-28 14:00N 53°38' W 000°12'0 0.0
2017-Nov-28 13:24N 53°38' W 000°12'0 0.0
2017-Nov-28 13:00N 53°38' W 000°12'0 0.0
2017-Nov-28 12:30N 53°38' W 000°12'0 0.0
2017-Nov-28 12:00N 53°38' W 000°12'0 0.0
2017-Nov-28 11:27N 53°38' W 000°12'0 0.0
2017-Nov-28 11:00N 53°38' W 000°12'0 0.0
2017-Nov-28 10:30N 53°38' W 000°12'0 0.0
2017-Nov-28 10:00N 53°38' W 000°12'0 0.0
2017-Nov-28 09:27N 53°38' W 000°12'0 0.0
2017-Nov-28 09:00N 53°38' W 000°12'0 0.0
2017-Nov-28 08:30N 53°38' W 000°12'0 0.0
2017-Nov-28 08:00N 53°38' W 000°12'0 0.0
2017-Nov-28 07:30N 53°38' W 000°12'0 0.0
2017-Nov-28 07:00N 53°38' W 000°12'0 0.0
2017-Nov-28 06:30N 53°38' W 000°12'0 0.0
2017-Nov-28 06:00N 53°38' W 000°12'0 0.0
2017-Nov-28 05:30N 53°38' W 000°12'0 0.0
2017-Nov-28 04:30N 53°38' W 000°12'0 0.0
2017-Nov-28 04:00N 53°38' W 000°12'0 0.0
2017-Nov-28 03:30N 53°38' W 000°12'0 0.0
2017-Nov-28 03:00N 53°38' W 000°12'0 0.0
2017-Nov-28 02:09N 53°38' W 000°12'0 0.0
2017-Nov-28 01:57N 53°38' W 000°12'0 0.0
2017-Nov-28 01:30N 53°38' W 000°12'0 0.0
2017-Nov-28 01:00N 53°38' W 000°12'0 0.0
2017-Nov-28 00:30N 53°38' W 000°12'0 0.0
2017-Nov-27 23:57N 53°38' W 000°12'0 0.0
2017-Nov-27 23:30N 53°38' W 000°12'0 0.0
2017-Nov-27 23:00N 53°38' W 000°12'0 0.0
2017-Nov-27 22:27N 53°38' W 000°12'0 0.0
2017-Nov-27 22:00N 53°38' W 000°12'0 0.0
2017-Nov-27 21:30N 53°38' W 000°12'0 0.0
2017-Nov-27 21:00N 53°38' W 000°12'0 0.0
2017-Nov-27 20:27N 53°38' W 000°12'0 0.0
2017-Nov-27 19:57N 53°38' W 000°12'0 0.0
2017-Nov-27 19:30N 53°38' W 000°12'0 0.0
2017-Nov-27 19:00N 53°38' W 000°12'0 0.0
2017-Nov-27 18:27N 53°38' W 000°12'0 0.0
2017-Nov-27 18:00N 53°38' W 000°12'0 0.0
2017-Nov-27 17:27N 53°38' W 000°12'0 0.0
2017-Nov-27 16:54N 53°38' W 000°12'0 0.0
2017-Nov-27 16:30N 53°38' W 000°12'0 0.0
2017-Nov-27 16:00N 53°38' W 000°12'0 0.0
2017-Nov-27 15:30N 53°38' W 000°12'0 0.0
2017-Nov-27 15:00N 53°38' W 000°12'0 0.0
2017-Nov-27 14:30N 53°38' W 000°12'0 0.0
2017-Nov-27 14:00N 53°38' W 000°12'0 0.0
2017-Nov-27 13:30N 53°38' W 000°12'0 0.0
2017-Nov-27 12:57N 53°38' W 000°12'0 0.0
2017-Nov-27 12:30N 53°38' W 000°12'0 0.0
2017-Nov-27 11:57N 53°38' W 000°12'0 0.0
2017-Nov-27 11:21N 53°38' W 000°12'0 0.0
2017-Nov-27 10:57N 53°38' W 000°12'0 0.0
2017-Nov-27 10:30N 53°38' W 000°12'0 0.0
2017-Nov-27 10:00N 53°38' W 000°12'0 0.0
2017-Nov-27 09:30N 53°38' W 000°12'0 0.0
2017-Nov-27 09:00N 53°38' W 000°12'0 0.0
2017-Nov-27 08:30N 53°38' W 000°12'0 0.0
2017-Nov-27 08:00N 53°38' W 000°12'0 0.0
2017-Nov-27 07:30N 53°38' W 000°12'0 0.0
2017-Nov-27 06:57N 53°38' W 000°12'0 0.0
2017-Nov-27 06:30N 53°38' W 000°12'0 0.0
2017-Nov-27 06:00N 53°38' W 000°12'0 0.0
2017-Nov-27 05:30N 53°38' W 000°12'0 0.0
2017-Nov-27 05:00N 53°38' W 000°12'0 0.0
2017-Nov-27 04:30N 53°38' W 000°12'0 0.0
2017-Nov-27 04:00N 53°38' W 000°12'0 0.0
2017-Nov-27 03:30N 53°38' W 000°12'0 0.0
2017-Nov-27 03:00N 53°38' W 000°12'0 0.0
2017-Nov-27 02:30N 53°38' W 000°12'0 0.0
2017-Nov-27 02:00N 53°38' W 000°12'0 0.0
2017-Nov-27 01:30N 53°38' W 000°12'0 0.0
2017-Nov-27 01:00N 53°38' W 000°12'0 0.0
2017-Nov-27 00:27N 53°38' W 000°12'0 0.0
2017-Nov-27 00:00N 53°38' W 000°12'0 0.0
2017-Nov-26 23:30N 53°38' W 000°12'0 0.0
2017-Nov-26 23:00N 53°38' W 000°12'0 0.0
2017-Nov-26 22:27N 53°38' W 000°12'0 0.0
2017-Nov-26 21:57N 53°38' W 000°12'0 0.0
2017-Nov-26 21:30N 53°38' W 000°12'0 0.0
2017-Nov-26 21:00N 53°38' W 000°12'0 0.0
2017-Nov-26 20:27N 53°38' W 000°12'0 0.0
2017-Nov-26 20:00N 53°38' W 000°12'0 0.0
2017-Nov-26 19:30N 53°38' W 000°12'0 0.0
2017-Nov-26 19:00N 53°38' W 000°12'0 0.0
2017-Nov-26 18:30N 53°38' W 000°12'0 0.0
2017-Nov-26 17:54N 53°38' W 000°12'0 0.0
2017-Nov-26 17:30N 53°38' W 000°12'0 0.0
2017-Nov-26 17:00N 53°38' W 000°12'0 0.0
2017-Nov-26 16:27N 53°38' W 000°12'0 0.0
2017-Nov-26 15:57N 53°38' W 000°12'0 0.0
2017-Nov-26 15:24N 53°38' W 000°12'0 0.0
2017-Nov-26 14:57N 53°38' W 000°12'0 0.0
2017-Nov-26 14:27N 53°38' W 000°12'0 0.0
2017-Nov-26 13:57N 53°38' W 000°12'0 0.0
2017-Nov-26 13:31N 53°38' W 000°12'0 0.0
2017-Nov-26 13:00N 53°38' W 000°12'0 0.0
2017-Nov-26 12:30N 53°38' W 000°12'0 0.0
2017-Nov-26 12:00N 53°38' W 000°12'0 0.0
2017-Nov-26 11:30N 53°38' W 000°12'0 0.0
2017-Nov-26 11:00N 53°38' W 000°12'0 0.8
2017-Nov-26 10:30N 53°38' W 000°11'2 4.8
2017-Nov-26 10:01N 53°37' W 000°08'3 5.6
2017-Nov-26 09:30N 53°37' W 000°03'5 9.4
2017-Nov-26 09:00N 53°35' E 000°04'510.5
2017-Nov-26 08:30N 53°33' E 000°12'5 9.4
2017-Nov-26 07:56N 53°37' E 000°19'4 8.8
2017-Nov-26 07:30N 53°40' E 000°23'0 0.6
2017-Nov-26 06:59N 53°39' E 000°23'2 4.4
2017-Nov-26 06:29N 53°42' E 000°24'144 6.8
2017-Nov-25 09:22N 51°37' E 002°24'513.1
2017-Nov-25 09:00N 51°34' E 002°19'713.2
2017-Nov-25 08:30N 51°28' E 002°13'613.1
2017-Nov-25 08:00N 51°22' E 002°11'713.3
2017-Nov-25 07:30N 51°16' E 002°07'612.8
2017-Nov-25 07:00N 51°11' E 001°59'714.0
2017-Nov-25 06:30N 51°08' E 001°49'714.0
2017-Nov-25 06:00N 51°05' E 001°40'714.3
2017-Nov-25 05:30N 50°59' E 001°33'714.4
2017-Nov-25 05:00N 50°52' E 001°28'714.3
2017-Nov-25 04:30N 50°46' E 001°24'1813.8
2017-Nov-25 03:11N 50°32' E 001°05'613.6
2017-Nov-25 02:47N 50°28' E 000°59'2514.1
2017-Nov-25 01:01N 50°22' E 000°21'714.6
2017-Nov-25 00:30N 50°20' E 000°10'714.7
2017-Nov-25 00:01N 50°18' W 000°01'1014.8
2017-Nov-24 23:22N 50°15' W 000°16'4014.4
2017-Nov-24 20:33N 50°05' W 001°17'213.5
2017-Nov-24 20:23N 50°04' W 001°20'513.1
2017-Nov-24 19:59N 50°03' W 001°28'612.5
2017-Nov-24 19:30N 50°02' W 001°37'612.0
2017-Nov-24 19:00N 50°01' W 001°46'611.6
2017-Nov-24 18:30N 49°59' W 001°55'611.2
2017-Nov-24 18:01N 49°57' W 002°03'510.9
2017-Nov-24 17:30N 49°56' W 002°11'1911.3
2017-Nov-24 15:48N 49°51' W 002°40'411.9
2017-Nov-24 15:29N 49°50' W 002°46'1112.3
2017-Nov-24 14:37N 49°47' W 003°01'312.7
2017-Nov-24 14:24N 49°46' W 003°05'512.9
2017-Nov-24 14:00N 49°45' W 003°13'712.9
2017-Nov-24 13:29N 49°44' W 003°24'  
Track history (hours):
 
Tides and Currents Weather Stations Pressure Air Temp Water Temp Dewpoint Dewpoint Depression Visibility Wind Speed Wind Dir Waves Ship Positions

Iolaos

Last reported at 2017-Nov-30 20:50 UTC. Time now 2017-Dec-18 05:18 UTC.
Position N 49°53' W 003°27'.
Warning: this ship's position is 17 days out of date.

Length 200 m; draft 7.2 m.

Type: Cargo ship. MMSI: 636017197.

Date/timePositionNaut miles runAvg speedWind from/ knotsBaromVisibWave heightAir tempDewpointWater temp
2017-Nov-30 20:50N 49°53' W 003°27'515.5
2017-Nov-30 20:30N 49°54' W 003°20'815.3
2017-Nov-30 20:00N 49°56' W 003°08'714.8
2017-Nov-30 19:30N 49°58' W 002°57'714.3
2017-Nov-30 19:00N 49°60' W 002°46'713.6
2017-Nov-30 18:31N 50°01' W 002°36'1912.2
2017-Nov-30 16:58N 50°05' W 002°07'511.4
2017-Nov-30 16:30N 50°07' W 001°60'611.4
2017-Nov-30 16:00N 50°08' W 001°51'611.8
2017-Nov-30 15:30N 50°10' W 001°42'612.2
2017-Nov-30 15:00N 50°11' W 001°33'612.9
2017-Nov-30 14:30N 50°12' W 001°23'713.8
2017-Nov-30 14:00N 50°14' W 001°13'4015.1
2017-Nov-30 11:21N 50°27' W 000°13'514.9
2017-Nov-30 11:00N 50°28' W 000°05'814.8
2017-Nov-30 10:30N 50°30' E 000°06'714.6
2017-Nov-30 10:00N 50°32' E 000°17'714.6
2017-Nov-30 09:30N 50°35' E 000°28'714.1
2017-Nov-30 09:01N 50°38' E 000°38'714.2
2017-Nov-30 08:31N 50°42' E 000°47'713.8
2017-Nov-30 08:00N 50°46' E 000°56'713.6
2017-Nov-30 07:30N 50°50' E 001°05'1213.7
2017-Nov-30 06:37N 50°57' E 001°21'314.8
2017-Nov-30 06:23N 50°59' E 001°24'615.6
2017-Nov-30 06:00N 51°03' E 001°31'816.1
2017-Nov-30 05:31N 51°09' E 001°40'816.2
2017-Nov-30 05:01N 51°15' E 001°49'816.5
2017-Nov-30 04:30N 51°23' E 001°54'815.8
2017-Nov-30 04:00N 51°29' E 002°01'815.6
2017-Nov-30 03:31N 51°35' E 002°10'140 8.8
2017-Nov-29 11:42N 53°40' E 000°26'1 5.6
2017-Nov-29 11:29N 53°41' E 000°26'3 0.3
2017-Nov-28 23:39N 53°43' E 000°29'2 5.9
2017-Nov-28 23:14N 53°42' E 000°26'1 6.1
2017-Nov-28 23:00N 53°41' E 000°25'3 5.8
2017-Nov-28 22:30N 53°38' E 000°22'4 7.7
2017-Nov-28 22:00N 53°35' E 000°18'4 7.0
2017-Nov-28 21:30N 53°33' E 000°14'4 8.1
2017-Nov-28 21:00N 53°33' E 000°07'510.6
2017-Nov-28 20:30N 53°35' W 000°01'611.1
2017-Nov-28 20:00N 53°38' W 000°09'2 3.4
2017-Nov-28 19:30N 53°38' W 000°12'0 0.0
2017-Nov-28 19:00N 53°38' W 000°12'0 0.0
2017-Nov-28 18:30N 53°38' W 000°12'0 0.0
2017-Nov-28 17:57N 53°38' W 000°12'0 0.0
2017-Nov-28 17:27N 53°38' W 000°12'0 0.0
2017-Nov-28 16:51N 53°38' W 000°12'0 0.0
2017-Nov-28 16:30N 53°38' W 000°12'0 0.0
2017-Nov-28 16:00N 53°38' W 000°12'0 0.0
2017-Nov-28 15:00N 53°38' W 000°12'0 0.0
2017-Nov-28 14:24N 53°38' W 000°12'0 0.0
2017-Nov-28 14:00N 53°38' W 000°12'0 0.0
2017-Nov-28 13:24N 53°38' W 000°12'0 0.0
2017-Nov-28 13:00N 53°38' W 000°12'0 0.0
2017-Nov-28 12:30N 53°38' W 000°12'0 0.0
2017-Nov-28 12:00N 53°38' W 000°12'0 0.0
2017-Nov-28 11:27N 53°38' W 000°12'0 0.0
2017-Nov-28 11:00N 53°38' W 000°12'0 0.0
2017-Nov-28 10:30N 53°38' W 000°12'0 0.0
2017-Nov-28 10:00N 53°38' W 000°12'0 0.0
2017-Nov-28 09:27N 53°38' W 000°12'0 0.0
2017-Nov-28 09:00N 53°38' W 000°12'0 0.0
2017-Nov-28 08:30N 53°38' W 000°12'0 0.0
2017-Nov-28 08:00N 53°38' W 000°12'0 0.0
2017-Nov-28 07:30N 53°38' W 000°12'0 0.0
2017-Nov-28 07:00N 53°38' W 000°12'0 0.0
2017-Nov-28 06:30N 53°38' W 000°12'0 0.0
2017-Nov-28 06:00N 53°38' W 000°12'0 0.0
2017-Nov-28 05:30N 53°38' W 000°12'0 0.0
2017-Nov-28 04:30N 53°38' W 000°12'0 0.0
2017-Nov-28 04:00N 53°38' W 000°12'0 0.0
2017-Nov-28 03:30N 53°38' W 000°12'0 0.0
2017-Nov-28 03:00N 53°38' W 000°12'0 0.0
2017-Nov-28 02:09N 53°38' W 000°12'0 0.0
2017-Nov-28 01:57N 53°38' W 000°12'0 0.0
2017-Nov-28 01:30N 53°38' W 000°12'0 0.0
2017-Nov-28 01:00N 53°38' W 000°12'0 0.0
2017-Nov-28 00:30N 53°38' W 000°12'0 0.0
2017-Nov-27 23:57N 53°38' W 000°12'0 0.0
2017-Nov-27 23:30N 53°38' W 000°12'0 0.0
2017-Nov-27 23:00N 53°38' W 000°12'0 0.0
2017-Nov-27 22:27N 53°38' W 000°12'0 0.0
2017-Nov-27 22:00N 53°38' W 000°12'0 0.0
2017-Nov-27 21:30N 53°38' W 000°12'0 0.0
2017-Nov-27 21:00N 53°38' W 000°12'0 0.0
2017-Nov-27 20:27N 53°38' W 000°12'0 0.0
2017-Nov-27 19:57N 53°38' W 000°12'0 0.0
2017-Nov-27 19:30N 53°38' W 000°12'0 0.0
2017-Nov-27 19:00N 53°38' W 000°12'0 0.0
2017-Nov-27 18:27N 53°38' W 000°12'0 0.0
2017-Nov-27 18:00N 53°38' W 000°12'0 0.0
2017-Nov-27 17:27N 53°38' W 000°12'0 0.0
2017-Nov-27 16:54N 53°38' W 000°12'0 0.0
2017-Nov-27 16:30N 53°38' W 000°12'0 0.0
2017-Nov-27 16:00N 53°38' W 000°12'0 0.0
2017-Nov-27 15:30N 53°38' W 000°12'0 0.0
2017-Nov-27 15:00N 53°38' W 000°12'0 0.0
2017-Nov-27 14:30N 53°38' W 000°12'0 0.0
2017-Nov-27 14:00N 53°38' W 000°12'0 0.0
2017-Nov-27 13:30N 53°38' W 000°12'0 0.0
2017-Nov-27 12:57N 53°38' W 000°12'0 0.0
2017-Nov-27 12:30N 53°38' W 000°12'0 0.0
2017-Nov-27 11:57N 53°38' W 000°12'0 0.0
2017-Nov-27 11:21N 53°38' W 000°12'0 0.0
2017-Nov-27 10:57N 53°38' W 000°12'0 0.0
2017-Nov-27 10:30N 53°38' W 000°12'0 0.0
2017-Nov-27 10:00N 53°38' W 000°12'0 0.0
2017-Nov-27 09:30N 53°38' W 000°12'0 0.0
2017-Nov-27 09:00N 53°38' W 000°12'0 0.0
2017-Nov-27 08:30N 53°38' W 000°12'0 0.0
2017-Nov-27 08:00N 53°38' W 000°12'0 0.0
2017-Nov-27 07:30N 53°38' W 000°12'0 0.0
2017-Nov-27 06:57N 53°38' W 000°12'0 0.0
2017-Nov-27 06:30N 53°38' W 000°12'0 0.0
2017-Nov-27 06:00N 53°38' W 000°12'0 0.0
2017-Nov-27 05:30N 53°38' W 000°12'0 0.0
2017-Nov-27 05:00N 53°38' W 000°12'0 0.0
2017-Nov-27 04:30N 53°38' W 000°12'0 0.0
2017-Nov-27 04:00N 53°38' W 000°12'0 0.0
2017-Nov-27 03:30N 53°38' W 000°12'0 0.0
2017-Nov-27 03:00N 53°38' W 000°12'0 0.0
2017-Nov-27 02:30N 53°38' W 000°12'0 0.0
2017-Nov-27 02:00N 53°38' W 000°12'0 0.0
2017-Nov-27 01:30N 53°38' W 000°12'0 0.0
2017-Nov-27 01:00N 53°38' W 000°12'0 0.0
2017-Nov-27 00:27N 53°38' W 000°12'0 0.0
2017-Nov-27 00:00N 53°38' W 000°12'0 0.0
2017-Nov-26 23:30N 53°38' W 000°12'0 0.0
2017-Nov-26 23:00N 53°38' W 000°12'0 0.0
2017-Nov-26 22:27N 53°38' W 000°12'0 0.0
2017-Nov-26 21:57N 53°38' W 000°12'0 0.0
2017-Nov-26 21:30N 53°38' W 000°12'0 0.0
2017-Nov-26 21:00N 53°38' W 000°12'0 0.0
2017-Nov-26 20:27N 53°38' W 000°12'0 0.0
2017-Nov-26 20:00N 53°38' W 000°12'0 0.0
2017-Nov-26 19:30N 53°38' W 000°12'0 0.0
2017-Nov-26 19:00N 53°38' W 000°12'0 0.0
2017-Nov-26 18:30N 53°38' W 000°12'0 0.0
2017-Nov-26 17:54N 53°38' W 000°12'0 0.0
2017-Nov-26 17:30N 53°38' W 000°12'0 0.0
2017-Nov-26 17:00N 53°38' W 000°12'0 0.0
2017-Nov-26 16:27N 53°38' W 000°12'0 0.0
2017-Nov-26 15:57N 53°38' W 000°12'0 0.0
2017-Nov-26 15:24N 53°38' W 000°12'0 0.0
2017-Nov-26 14:57N 53°38' W 000°12'0 0.0
2017-Nov-26 14:27N 53°38' W 000°12'0 0.0
2017-Nov-26 13:57N 53°38' W 000°12'0 0.0
2017-Nov-26 13:31N 53°38' W 000°12'0 0.0
2017-Nov-26 13:00N 53°38' W 000°12'0 0.0
2017-Nov-26 12:30N 53°38' W 000°12'0 0.0
2017-Nov-26 12:00N 53°38' W 000°12'0 0.0
2017-Nov-26 11:30N 53°38' W 000°12'0 0.0
2017-Nov-26 11:00N 53°38' W 000°12'0 0.8
2017-Nov-26 10:30N 53°38' W 000°11'2 4.8
2017-Nov-26 10:01N 53°37' W 000°08'3 5.6
2017-Nov-26 09:30N 53°37' W 000°03'5 9.4
2017-Nov-26 09:00N 53°35' E 000°04'510.5
2017-Nov-26 08:30N 53°33' E 000°12'5 9.4
2017-Nov-26 07:56N 53°37' E 000°19'4 8.8
2017-Nov-26 07:30N 53°40' E 000°23'0 0.6
2017-Nov-26 06:59N 53°39' E 000°23'2 4.4
2017-Nov-26 06:29N 53°42' E 000°24'144 6.8
2017-Nov-25 09:22N 51°37' E 002°24'513.1
2017-Nov-25 09:00N 51°34' E 002°19'713.2
2017-Nov-25 08:30N 51°28' E 002°13'613.1
2017-Nov-25 08:00N 51°22' E 002°11'713.3
2017-Nov-25 07:30N 51°16' E 002°07'612.8
2017-Nov-25 07:00N 51°11' E 001°59'714.0
2017-Nov-25 06:30N 51°08' E 001°49'714.0
2017-Nov-25 06:00N 51°05' E 001°40'714.3
2017-Nov-25 05:30N 50°59' E 001°33'714.4
2017-Nov-25 05:00N 50°52' E 001°28'714.3
2017-Nov-25 04:30N 50°46' E 001°24'1813.8
2017-Nov-25 03:11N 50°32' E 001°05'613.6
2017-Nov-25 02:47N 50°28' E 000°59'2514.1
2017-Nov-25 01:01N 50°22' E 000°21'714.6
2017-Nov-25 00:30N 50°20' E 000°10'714.7
2017-Nov-25 00:01N 50°18' W 000°01'1014.8
2017-Nov-24 23:22N 50°15' W 000°16'4014.4
2017-Nov-24 20:33N 50°05' W 001°17'213.5
2017-Nov-24 20:23N 50°04' W 001°20'513.1
2017-Nov-24 19:59N 50°03' W 001°28'612.5
2017-Nov-24 19:30N 50°02' W 001°37'612.0
2017-Nov-24 19:00N 50°01' W 001°46'611.6
2017-Nov-24 18:30N 49°59' W 001°55'611.2
2017-Nov-24 18:01N 49°57' W 002°03'510.9
2017-Nov-24 17:30N 49°56' W 002°11'1911.3
2017-Nov-24 15:48N 49°51' W 002°40'411.9
2017-Nov-24 15:29N 49°50' W 002°46'1112.3
2017-Nov-24 14:37N 49°47' W 003°01'312.7
2017-Nov-24 14:24N 49°46' W 003°05'512.9
2017-Nov-24 14:00N 49°45' W 003°13'712.9
2017-Nov-24 13:29N 49°44' W 003°24'  

Dump ship's entire track history